createdAt,value
2022-09-28T00:01:42.647Z,11.87
2022-09-28T00:04:18.306Z,11.86
2022-09-28T00:06:49.356Z,11.82
2022-09-28T00:09:21.206Z,11.78
2022-09-28T00:11:51.643Z,11.77
2022-09-28T00:14:25.098Z,11.76
2022-09-28T00:16:56.581Z,11.72
2022-09-28T00:19:28.214Z,11.70
2022-09-28T00:22:05.226Z,11.70
2022-09-28T00:24:38.534Z,11.67
2022-09-28T00:27:10.986Z,11.65
2022-09-28T00:52:30.555Z,11.45
2022-09-28T01:18:12.714Z,11.39
2022-09-28T02:05:16.706Z,11.07
2022-09-28T02:09:36.369Z,11.03
2022-09-28T02:48:03.670Z,11.35
2022-09-28T02:50:55.967Z,11.37
2022-09-28T02:53:51.496Z,11.38
2022-09-28T02:56:47.358Z,11.33
2022-09-28T02:59:51.681Z,11.32
2022-09-28T03:02:29.259Z,11.32
2022-09-28T03:05:24.859Z,11.33
2022-09-28T03:08:57.360Z,11.29
2022-09-28T03:11:38.373Z,11.22
2022-09-28T03:14:11.472Z,11.17
2022-09-28T03:22:00.700Z,11.12
2022-09-28T03:57:57.383Z,11.04
2022-09-28T04:01:45.903Z,11.02
2022-09-28T04:04:43.145Z,11.00
2022-09-28T04:51:18.292Z,10.58
2022-09-28T04:53:48.897Z,10.55
2022-09-28T04:56:39.835Z,10.53
2022-09-28T04:59:29.817Z,10.53
2022-09-28T05:02:22.379Z,10.52
2022-09-28T05:05:32.891Z,10.53
2022-09-28T05:08:34.967Z,10.52
2022-09-28T05:11:09.038Z,10.49
2022-09-28T05:14:30.662Z,10.49
2022-09-28T05:17:42.343Z,10.47
2022-09-28T05:20:23.359Z,10.46
2022-09-28T05:22:55.505Z,10.46
2022-09-28T05:25:26.551Z,10.46
2022-09-28T05:28:05.929Z,10.46
2022-09-28T05:31:06.304Z,10.43
2022-09-28T05:34:01.725Z,10.40
2022-09-28T06:08:47.324Z,10.38
2022-09-28T06:11:35.132Z,10.35
2022-09-28T06:14:14.518Z,10.33
2022-09-28T06:17:13.259Z,10.33
2022-09-28T06:19:44.642Z,10.35
2022-09-28T06:22:27.180Z,10.37
2022-09-28T06:25:08.677Z,10.40
2022-09-28T06:27:39.723Z,10.42
2022-09-28T06:30:12.077Z,10.45
2022-09-28T06:32:44.901Z,10.47
2022-09-28T06:35:17.122Z,10.49
2022-09-28T06:37:49.421Z,10.53
2022-09-28T06:40:22.564Z,10.55
2022-09-28T06:43:34.477Z,10.58
2022-09-28T06:46:22.553Z,10.60
2022-09-28T06:49:20.913Z,10.57
2022-09-28T06:52:08.507Z,10.58
2022-09-28T06:54:55.886Z,10.64
2022-09-28T06:57:31.536Z,10.68
2022-09-28T07:00:00.309Z,10.70
2022-09-28T07:02:29.630Z,10.74
2022-09-28T07:05:27.751Z,10.80
2022-09-28T07:08:07.151Z,10.93
2022-09-28T07:11:07.342Z,11.09
2022-09-28T07:13:59.609Z,11.34
2022-09-28T07:21:04.561Z,12.31
2022-09-28T07:23:40.332Z,12.53
2022-09-28T07:26:37.873Z,12.71
2022-09-28T07:29:14.730Z,12.69
2022-09-28T07:32:01.282Z,12.69
2022-09-28T07:34:49.498Z,12.70
2022-09-28T07:37:39.785Z,12.76
2022-09-28T07:40:28.868Z,12.96
2022-09-28T07:43:05.489Z,13.28
2022-09-28T07:45:38.992Z,13.58
2022-09-28T07:51:12.876Z,14.61
2022-09-28T07:53:44.668Z,14.45
2022-09-28T07:56:31.844Z,14.21
2022-09-28T07:59:06.533Z,13.81
2022-09-28T08:01:41.469Z,13.40
2022-09-28T08:04:13.375Z,13.40
2022-09-28T08:06:45.275Z,13.47
2022-09-28T08:09:18.391Z,13.38
2022-09-28T08:12:06.503Z,13.81
2022-09-28T08:14:42.659Z,13.84
2022-09-28T08:18:15.320Z,13.45
2022-09-28T08:21:05.607Z,14.70
2022-09-28T08:23:36.102Z,16.21
2022-09-28T08:26:06.951Z,18.01
2022-09-28T08:28:37.089Z,17.42
2022-09-28T08:31:26.212Z,16.55
2022-09-28T08:34:23.582Z,16.16
2022-09-28T08:37:32.211Z,15.20
2022-09-28T08:40:45.230Z,16.04
2022-09-28T08:44:05.600Z,18.12
2022-09-28T08:47:04.617Z,18.23
2022-09-28T08:49:50.836Z,17.99
2022-09-28T08:52:41.388Z,17.83
2022-09-28T08:55:36.687Z,17.14
2022-09-28T08:58:23.510Z,18.03
2022-09-28T09:00:54.879Z,19.09
2022-09-28T09:03:34.618Z,19.55
2022-09-28T09:06:48.594Z,21.60
2022-09-28T09:13:16.660Z,22.93
2022-09-28T09:16:28.148Z,23.40
2022-09-28T09:19:43.786Z,21.86
2022-09-28T09:22:44.201Z,19.62
2022-09-28T09:25:38.539Z,17.89
2022-09-28T09:28:21.349Z,16.61
2022-09-28T09:31:13.191Z,15.84
2022-09-28T09:34:08.981Z,15.53
2022-09-28T09:37:26.888Z,15.18
2022-09-28T09:40:46.724Z,14.86
2022-09-28T09:43:48.162Z,14.50
2022-09-28T09:46:42.099Z,15.65
2022-09-28T09:49:43.867Z,17.81
2022-09-28T09:52:28.594Z,19.99
2022-09-28T09:55:01.215Z,19.68
2022-09-28T09:57:56.435Z,18.91
2022-09-28T10:00:51.221Z,18.29
2022-09-28T10:03:30.647Z,17.11
2022-09-28T10:06:28.055Z,16.06
2022-09-28T10:09:15.324Z,15.40
2022-09-28T10:11:49.251Z,17.33
2022-09-28T10:14:27.266Z,19.74
2022-09-28T10:18:23.956Z,20.08
2022-09-28T10:21:21.099Z,21.81
2022-09-28T10:24:05.893Z,22.63
2022-09-28T10:26:41.690Z,20.96
2022-09-28T10:29:17.461Z,19.47
2022-09-28T10:31:49.330Z,19.80
2022-09-28T10:34:32.802Z,19.06
2022-09-28T10:37:13.339Z,18.22
2022-09-28T10:40:04.617Z,17.70
2022-09-28T10:42:36.687Z,18.12
2022-09-28T10:45:23.693Z,19.74
2022-09-28T10:47:53.409Z,21.22
2022-09-28T10:50:28.467Z,22.11
2022-09-28T10:53:28.055Z,22.87
2022-09-28T10:56:09.127Z,23.47
2022-09-28T10:58:42.277Z,23.97
2022-09-28T11:01:23.377Z,24.09
2022-09-28T11:04:04.747Z,24.15
2022-09-28T11:06:42.756Z,23.76
2022-09-28T11:09:42.480Z,23.09
2022-09-28T11:12:17.777Z,23.02
2022-09-28T11:14:53.247Z,22.78
2022-09-28T11:17:29.170Z,22.67
2022-09-28T11:20:26.093Z,22.03
2022-09-28T11:23:22.270Z,21.62
2022-09-28T11:26:17.697Z,20.13
2022-09-28T11:28:53.629Z,19.43
2022-09-28T11:31:32.506Z,18.73
2022-09-28T11:34:17.230Z,18.21
2022-09-28T11:37:34.019Z,17.99
2022-09-28T11:40:25.884Z,18.81
2022-09-28T11:43:19.778Z,18.80
2022-09-28T11:46:08.546Z,18.59
2022-09-28T11:48:50.278Z,17.70
2022-09-28T11:51:26.297Z,17.49
2022-09-28T11:54:01.005Z,17.39
2022-09-28T11:56:39.080Z,18.21
2022-09-28T11:59:17.107Z,18.76
2022-09-28T12:01:57.716Z,19.29
2022-09-28T12:04:42.538Z,19.86
2022-09-28T12:07:27.989Z,20.07
2022-09-28T12:10:20.768Z,19.17
2022-09-28T12:13:01.448Z,18.69
2022-09-28T12:16:23.336Z,18.06
2022-09-28T12:19:15.516Z,17.13
2022-09-28T12:21:54.596Z,16.79
2022-09-28T12:24:46.413Z,16.59
2022-09-28T12:27:42.301Z,16.46
2022-09-28T12:30:20.386Z,16.42
2022-09-28T12:33:12.806Z,16.94
2022-09-28T12:36:09.191Z,16.90
2022-09-28T12:39:08.453Z,16.87
2022-09-28T12:42:23.905Z,16.70
2022-09-28T12:45:09.239Z,16.32
2022-09-28T12:47:38.999Z,16.18
2022-09-28T12:50:38.691Z,16.04
2022-09-28T12:53:55.932Z,16.49
2022-09-28T12:57:00.093Z,17.00
2022-09-28T13:00:07.244Z,17.00
2022-09-28T13:02:57.140Z,17.44
2022-09-28T13:05:45.900Z,17.48
2022-09-28T13:09:10.735Z,17.28
2022-09-28T13:12:03.882Z,16.88
2022-09-28T13:15:09.219Z,17.24
2022-09-28T13:22:10.032Z,17.60
2022-09-28T13:24:44.897Z,17.96
2022-09-28T13:27:30.366Z,18.26
2022-09-28T13:30:06.126Z,18.37
2022-09-28T13:33:05.399Z,18.24
2022-09-28T13:35:38.483Z,18.31
2022-09-28T13:38:47.468Z,18.41
2022-09-28T13:41:32.480Z,18.51
2022-09-28T13:44:16.334Z,18.56
2022-09-28T13:46:54.632Z,18.47
2022-09-28T13:50:20.395Z,18.59
2022-09-28T13:53:12.545Z,18.76
2022-09-28T13:56:35.537Z,18.78
2022-09-28T13:59:20.449Z,18.70
2022-09-28T14:02:24.342Z,18.58
2022-09-28T14:05:38.047Z,18.17
2022-09-28T14:14:54.143Z,17.57
2022-09-28T14:17:55.987Z,17.61
2022-09-28T14:20:26.703Z,17.44
2022-09-28T14:23:37.443Z,17.27
2022-09-28T14:26:30.925Z,16.75
2022-09-28T14:29:33.683Z,16.33
2022-09-28T14:32:23.717Z,15.84
2022-09-28T14:35:01.623Z,15.50
2022-09-28T14:37:55.863Z,15.23
2022-09-28T14:41:13.482Z,14.96
2022-09-28T14:44:14.849Z,14.78
2022-09-28T14:46:47.797Z,14.65
2022-09-28T14:49:41.256Z,14.58
2022-09-28T15:02:33.579Z,14.25
2022-09-28T15:05:14.052Z,14.21
2022-09-28T15:07:48.482Z,14.14
2022-09-28T15:10:46.942Z,14.01
2022-09-28T15:13:28.121Z,13.80
2022-09-28T15:16:06.695Z,13.64
2022-09-28T15:18:44.287Z,13.50
2022-09-28T15:21:14.862Z,13.40
2022-09-28T15:23:47.270Z,13.32
2022-09-28T15:26:27.893Z,13.26
2022-09-28T15:28:58.421Z,13.18
2022-09-28T15:31:31.750Z,13.07
2022-09-28T15:34:20.678Z,12.97
2022-09-28T15:36:51.546Z,12.87
2022-09-28T15:39:34.534Z,12.76
2022-09-28T15:42:07.327Z,12.66
2022-09-28T15:44:38.713Z,12.56
2022-09-28T15:47:28.506Z,12.47
2022-09-28T15:50:02.348Z,12.40
2022-09-28T15:52:46.565Z,12.28
2022-09-28T15:55:48.256Z,12.17
2022-09-28T15:58:22.161Z,12.07
2022-09-28T16:01:12.641Z,11.99
2022-09-28T16:03:45.962Z,11.93
2022-09-28T16:06:18.045Z,11.83
2022-09-28T16:08:50.267Z,11.71
2022-09-28T16:11:28.357Z,11.61
2022-09-28T16:14:16.321Z,11.54
2022-09-28T16:16:53.650Z,11.48
2022-09-28T16:19:32.666Z,11.43
2022-09-28T16:22:06.922Z,11.39
2022-09-28T16:24:42.133Z,11.34
2022-09-28T16:27:52.407Z,11.27
2022-09-28T16:30:30.427Z,11.21
2022-09-28T16:33:06.866Z,11.17
2022-09-28T16:35:42.283Z,11.14
2022-09-28T16:41:11.367Z,11.11
2022-09-28T16:43:45.551Z,11.08
2022-09-28T16:46:20.798Z,11.05
2022-09-28T16:49:17.065Z,11.04
2022-09-28T16:51:51.161Z,11.02
2022-09-28T16:54:43.491Z,10.98
2022-09-28T16:57:15.404Z,10.92
2022-09-28T16:59:48.341Z,10.85
2022-09-28T17:05:18.247Z,10.65
2022-09-28T17:08:05.025Z,10.59
2022-09-28T17:11:09.731Z,10.55
2022-09-28T17:13:36.610Z,10.52
2022-09-28T17:16:12.997Z,10.52
2022-09-28T17:18:43.869Z,10.52
2022-09-28T17:21:20.072Z,10.55
2022-09-28T17:23:51.036Z,10.62
2022-09-28T17:26:30.107Z,10.70
2022-09-28T17:29:00.187Z,10.74
2022-09-28T17:31:30.140Z,10.78
2022-09-28T17:34:00.296Z,10.79
2022-09-28T17:36:30.911Z,10.74
2022-09-28T17:39:05.686Z,10.58
2022-09-28T17:41:37.732Z,10.37
2022-09-28T17:44:09.579Z,10.25
2022-09-28T17:46:46.350Z,10.20
2022-09-28T17:49:16.409Z,10.16
2022-09-28T17:51:46.474Z,10.13
2022-09-28T17:54:20.318Z,10.10
2022-09-28T17:56:49.878Z,10.06
2022-09-28T17:59:19.612Z,10.01
2022-09-28T18:01:49.729Z,9.99
2022-09-28T18:04:47.145Z,9.99
2022-09-28T18:07:10.572Z,9.98
2022-09-28T18:09:39.948Z,9.93
2022-09-28T18:12:10.791Z,9.89
2022-09-28T18:14:41.829Z,9.89
2022-09-28T18:17:15.768Z,9.93
2022-09-28T18:19:46.261Z,9.90
2022-09-28T18:22:17.390Z,9.86
2022-09-28T18:24:47.736Z,9.82
2022-09-28T18:27:21.919Z,9.78
2022-09-28T18:29:51.355Z,9.68
2022-09-28T18:32:21.047Z,9.64
2022-09-28T18:34:51.386Z,9.60
2022-09-28T18:37:20.879Z,9.58
2022-09-28T18:39:52.808Z,9.53
2022-09-28T18:42:24.517Z,9.49
2022-09-28T18:44:54.914Z,9.45
2022-09-28T18:47:25.987Z,9.45
2022-09-28T18:49:56.094Z,9.44
2022-09-28T18:52:27.356Z,9.41
2022-09-28T18:54:57.249Z,9.38
2022-09-28T18:57:30.660Z,9.36
2022-09-28T19:00:02.840Z,9.34
2022-09-28T19:02:35.042Z,9.30
2022-09-28T19:05:06.397Z,9.30
2022-09-28T19:07:36.820Z,9.31
2022-09-28T19:10:10.564Z,9.31
2022-09-28T19:12:39.299Z,9.30
2022-09-28T19:15:10.834Z,9.30
2022-09-28T19:17:40.053Z,9.28
2022-09-28T19:20:12.229Z,9.27
2022-09-28T19:22:42.357Z,9.27
2022-09-28T19:25:13.040Z,9.30
2022-09-28T19:27:42.508Z,9.32
2022-09-28T19:30:17.114Z,9.33
2022-09-28T19:32:47.841Z,9.34
2022-09-28T19:35:19.422Z,9.34
2022-09-28T19:37:52.044Z,9.35
2022-09-28T19:40:23.771Z,9.33
2022-09-28T19:42:53.428Z,9.33
2022-09-28T19:45:22.415Z,9.33
2022-09-28T19:47:59.222Z,9.34
2022-09-28T19:50:34.551Z,9.36
2022-09-28T19:53:07.120Z,9.39
2022-09-28T19:55:37.664Z,9.41
2022-09-28T19:58:09.169Z,9.43
2022-09-28T20:00:38.717Z,9.43
2022-09-28T20:03:09.787Z,9.42
2022-09-28T20:05:41.926Z,9.42
2022-09-28T20:08:12.668Z,9.43
2022-09-28T20:10:52.179Z,9.42
2022-09-28T20:13:24.937Z,9.43
2022-09-28T20:15:56.818Z,9.45
2022-09-28T20:19:19.581Z,9.44
2022-09-28T20:21:52.354Z,9.43
2022-09-28T20:24:21.240Z,9.40
2022-09-28T20:26:50.422Z,9.38
2022-09-28T20:29:22.229Z,9.36
2022-09-28T20:31:52.326Z,9.36
2022-09-28T20:34:24.916Z,9.39
2022-09-28T20:36:57.784Z,9.46
2022-09-28T20:39:27.808Z,9.56
2022-09-28T20:41:58.027Z,9.65
2022-09-28T20:44:27.754Z,9.74
2022-09-28T20:46:58.262Z,9.83
2022-09-28T20:49:29.542Z,9.90
2022-09-28T20:52:02.121Z,9.98
2022-09-28T20:54:31.412Z,10.06
2022-09-28T20:57:17.720Z,10.13
2022-09-28T20:59:52.303Z,10.17
2022-09-28T21:02:25.660Z,10.17
2022-09-28T21:04:57.137Z,10.15
2022-09-28T21:07:29.896Z,10.17
2022-09-28T21:10:00.031Z,10.22
2022-09-28T21:12:34.978Z,10.23
2022-09-28T21:15:09.773Z,10.17
2022-09-28T21:18:28.677Z,10.11
2022-09-28T21:21:01.265Z,10.11
2022-09-28T21:23:35.662Z,10.13
2022-09-28T21:26:08.522Z,10.14
2022-09-28T21:28:40.878Z,10.13
2022-09-28T21:31:14.476Z,10.14
2022-09-28T21:33:46.729Z,10.16
2022-09-28T21:36:17.785Z,10.18
2022-09-28T21:38:50.172Z,10.17
2022-09-28T21:41:19.918Z,10.16
2022-09-28T21:43:54.555Z,10.17
2022-09-28T21:46:25.997Z,10.21
2022-09-28T21:48:56.149Z,10.26
2022-09-28T21:51:25.289Z,10.28
2022-09-28T21:53:56.828Z,10.31
2022-09-28T21:56:28.425Z,10.32
2022-09-28T21:58:59.049Z,10.31
2022-09-28T22:01:29.947Z,10.29
2022-09-28T22:04:00.664Z,10.30
2022-09-28T22:06:31.274Z,10.30
2022-09-28T22:09:04.444Z,10.30
2022-09-28T22:11:33.756Z,10.31
2022-09-28T22:14:04.164Z,10.32
2022-09-28T22:16:37.478Z,10.31
2022-09-28T22:19:10.682Z,10.29
2022-09-28T22:21:42.029Z,10.28
2022-09-28T22:24:15.038Z,10.28
2022-09-28T22:26:46.459Z,10.25
2022-09-28T22:29:19.689Z,10.15
2022-09-28T22:32:00.605Z,10.04
2022-09-28T22:34:32.684Z,9.97
2022-09-28T22:37:05.911Z,9.88
2022-09-28T22:39:37.712Z,9.78
2022-09-28T22:42:10.785Z,9.68
2022-09-28T22:44:41.964Z,9.66
2022-09-28T22:47:12.629Z,9.66
2022-09-28T22:49:42.269Z,9.70
2022-09-28T22:52:12.462Z,9.76
2022-09-28T22:54:42.755Z,9.76
2022-09-28T22:57:13.191Z,9.74
2022-09-28T22:59:44.978Z,9.73
2022-09-28T23:02:16.194Z,9.71
2022-09-28T23:04:45.831Z,9.69
2022-09-28T23:07:17.606Z,9.68
2022-09-28T23:09:47.009Z,9.70
2022-09-28T23:12:17.313Z,9.73
2022-09-28T23:14:46.692Z,9.72
2022-09-28T23:21:44.169Z,9.80
2022-09-28T23:24:15.111Z,9.76
2022-09-28T23:26:46.847Z,9.69
2022-09-28T23:29:17.465Z,9.66
2022-09-28T23:31:48.551Z,9.63
2022-09-28T23:34:21.066Z,9.60
2022-09-28T23:37:30.905Z,9.61
2022-09-28T23:40:04.242Z,9.59
2022-09-28T23:42:37.407Z,9.55
2022-09-28T23:45:07.584Z,9.52
2022-09-28T23:47:40.444Z,9.47
2022-09-28T23:50:25.049Z,9.42
2022-09-28T23:52:55.277Z,9.38
2022-09-28T23:55:25.725Z,9.37
2022-09-28T23:57:58.095Z,9.34
